createdAt,value
2022-11-13T00:08:04.595Z,72.70
2022-11-13T00:38:59.557Z,69.73
2022-11-13T00:49:03.148Z,69.09
2022-11-13T00:59:43.134Z,67.88
2022-11-13T01:10:03.923Z,68.88
2022-11-13T01:20:08.993Z,70.20
2022-11-13T01:30:14.565Z,71.71
2022-11-13T01:40:17.990Z,72.17
2022-11-13T01:50:22.573Z,71.86
2022-11-13T02:11:01.042Z,72.53
2022-11-13T02:21:17.952Z,73.55
2022-11-13T02:31:22.472Z,74.68
2022-11-13T02:41:27.112Z,75.36
2022-11-13T03:22:56.765Z,74.89
2022-11-13T03:53:47.133Z,74.34
2022-11-13T04:03:52.356Z,75.02
2022-11-13T04:13:57.942Z,75.06
2022-11-13T04:24:01.621Z,75.25
2022-11-13T04:34:06.294Z,73.69
2022-11-13T04:44:12.163Z,72.92
2022-11-13T04:54:17.126Z,73.18
2022-11-13T05:04:20.285Z,75.95
2022-11-13T05:14:24.722Z,76.05
2022-11-13T05:24:27.731Z,78.06
2022-11-13T05:34:32.297Z,78.39
2022-11-13T05:44:35.736Z,78.60
2022-11-13T06:15:49.542Z,73.73
2022-11-13T06:25:52.685Z,73.74
2022-11-13T06:35:57.172Z,75.03
2022-11-13T06:46:03.578Z,75.62
2022-11-13T06:56:08.881Z,74.94
2022-11-13T07:06:14.264Z,74.81
2022-11-13T07:16:19.308Z,73.58
2022-11-13T07:26:22.571Z,73.87
2022-11-13T07:36:26.954Z,73.49
2022-11-13T07:46:29.903Z,72.83
2022-11-13T07:56:34.361Z,71.38
2022-11-13T08:06:37.909Z,71.44
2022-11-13T08:16:42.734Z,72.29
2022-11-13T08:26:45.765Z,71.67
2022-11-13T08:36:52.636Z,70.76
2022-11-13T08:46:55.847Z,70.47
2022-11-13T08:57:05.655Z,70.62
2022-11-13T09:07:09.541Z,71.96
2022-11-13T09:18:02.978Z,70.62
2022-11-13T09:28:24.429Z,70.17
2022-11-13T09:39:09.363Z,69.45
2022-11-13T09:49:31.784Z,69.49
2022-11-13T10:11:10.365Z,72.60
2022-11-13T10:21:27.932Z,72.06
2022-11-13T10:31:46.512Z,71.59
2022-11-13T10:41:51.554Z,71.31
2022-11-13T10:52:00.610Z,70.68
2022-11-13T11:02:17.440Z,69.53
2022-11-13T11:12:30.645Z,71.33
2022-11-13T11:22:37.574Z,71.96
2022-11-13T11:33:16.153Z,73.88
2022-11-13T11:43:34.006Z,73.27
2022-11-13T11:53:48.635Z,72.76
2022-11-13T12:04:12.777Z,72.56
2022-11-13T12:14:22.187Z,73.34
2022-11-13T12:24:53.669Z,74.32
2022-11-13T12:35:03.443Z,75.18
2022-11-13T12:45:18.832Z,76.47
2022-11-13T12:56:10.065Z,76.05
2022-11-13T13:06:57.882Z,75.98
2022-11-13T13:53:26.975Z,76.70
2022-11-13T14:03:30.299Z,77.74
2022-11-13T14:13:34.647Z,78.48
2022-11-13T14:23:41.730Z,79.18
2022-11-13T14:33:48.421Z,77.72
2022-11-13T14:43:53.545Z,77.38
2022-11-13T14:54:07.500Z,76.46
2022-11-13T15:04:11.879Z,74.56
2022-11-13T15:14:18.023Z,75.21
2022-11-13T15:24:20.951Z,76.60
2022-11-13T15:34:25.481Z,76.42
2022-11-13T15:44:28.574Z,76.91
2022-11-13T15:54:34.658Z,78.09
2022-11-13T16:04:55.414Z,77.73
2022-11-13T16:15:01.135Z,78.54
2022-11-13T16:25:04.678Z,77.57
2022-11-13T16:35:12.886Z,78.34
2022-11-13T16:45:15.980Z,80.22
2022-11-13T16:55:20.700Z,80.11
2022-11-13T17:05:24.398Z,79.82
2022-11-13T17:15:29.179Z,80.64
2022-11-13T17:25:44.048Z,82.20
2022-11-13T17:46:37.425Z,83.71
2022-11-13T17:56:47.951Z,83.89
2022-11-13T18:06:56.009Z,82.08
2022-11-13T18:17:10.602Z,81.80
2022-11-13T18:27:36.297Z,82.19
2022-11-13T18:38:17.739Z,82.71
2022-11-13T18:48:35.951Z,82.49
2022-11-13T18:58:43.435Z,82.69
2022-11-13T19:08:47.318Z,82.86
2022-11-13T19:18:54.229Z,83.43
2022-11-13T19:28:57.208Z,83.03
2022-11-13T19:39:01.845Z,82.98
2022-11-13T19:49:05.293Z,81.97
2022-11-13T19:59:14.040Z,81.25
2022-11-13T20:09:26.861Z,81.19
2022-11-13T20:19:51.279Z,81.09
2022-11-13T20:30:03.022Z,80.10
2022-11-13T20:40:15.879Z,79.73
2022-11-13T20:50:22.055Z,79.63
2022-11-13T21:00:26.969Z,79.59
2022-11-13T21:10:30.976Z,80.40
2022-11-13T21:20:36.597Z,80.19
2022-11-13T21:30:39.708Z,78.55
2022-11-13T21:40:44.740Z,78.10
2022-11-13T21:50:47.809Z,78.60
2022-11-13T22:00:52.717Z,81.20
2022-11-13T22:10:55.705Z,80.86
2022-11-13T22:31:53.833Z,80.07
2022-11-13T22:41:57.486Z,79.86
2022-11-13T22:52:18.149Z,78.00
2022-11-13T23:02:21.276Z,77.63
2022-11-13T23:12:33.558Z,79.77
2022-11-13T23:22:39.526Z,82.57
2022-11-13T23:43:04.324Z,77.32
2022-11-13T23:53:09.210Z,73.08
